LVJMA TJIG-TFFF
Flight info
| Callsign | LVJMA |
|---|---|
| Flight time | 1h 5m |
| Altitude | 41000 |
| Route | SJU RTE2 COY A555 ILURI/N0390F230 A555 EMOLA DCT FOF |
| Aircraft | HDJT/L-SABDGRWY/H |
Departure
| Time | 2026-05-07 21:05 |
|---|---|
| Airport | Fernando Luis Ribas Dominicci Airport (TJIG) |
Arrival
| Time | 2026-05-07 22:10 |
|---|---|
| Airport | Martinique Aimé Césaire International Airport (TFFF) |
| Time | Latitude | Longitude | Altitude | Speed | Heading |
|---|---|---|---|---|---|
| 2026-05-07 20:56 | 18.45711 | -66.10295 | 13 ft | 0 kts | 355° |
| 2026-05-07 21:00 | 18.45707 | -66.10295 | 13 ft | 1 kts | 355° |
| 2026-05-07 21:01 | 18.45705 | -66.10294 | 13 ft | 0 kts | 354° |
| 2026-05-07 21:02 | 18.45706 | -66.10296 | 13 ft | 1 kts | 289° |
| 2026-05-07 21:02 | 18.45694 | -66.10320 | 13 ft | 12 kts | 250° |
| 2026-05-07 21:03 | 18.45674 | -66.10454 | 12 ft | 21 kts | 263° |
| 2026-05-07 21:03 | 18.45660 | -66.10542 | 12 ft | 0 kts | 180° |
| 2026-05-07 21:03 | 18.45619 | -66.10536 | 11 ft | 8 kts | 162° |
| 2026-05-07 21:04 | 18.45602 | -66.10493 | 10 ft | 5 kts | 88° |
| 2026-05-07 21:04 | 18.45612 | -66.10434 | 10 ft | 26 kts | 81° |
| 2026-05-07 21:04 | 18.45665 | -66.09966 | 13 ft | 100 kts | 83° |
| 2026-05-07 21:04 | 18.45739 | -66.09111 | 449 ft | 124 kts | 87° |
| 2026-05-07 21:05 | 18.45777 | -66.08223 | 1262 ft | 119 kts | 96° |
| 2026-05-07 21:05 | 18.45451 | -66.07378 | 1737 ft | 135 kts | 122° |
| 2026-05-07 21:05 | 18.44855 | -66.06584 | 2255 ft | 142 kts | 126° |
| 2026-05-07 21:05 | 18.44225 | -66.05759 | 2788 ft | 147 kts | 126° |
| 2026-05-07 21:06 | 18.43584 | -66.04868 | 3241 ft | 158 kts | 125° |
| 2026-05-07 21:06 | 18.42899 | -66.03792 | 3674 ft | 191 kts | 118° |
| 2026-05-07 21:06 | 18.42216 | -66.02522 | 4439 ft | 207 kts | 119° |
| 2026-05-07 21:06 | 18.41449 | -66.01160 | 5112 ft | 223 kts | 120° |
| 2026-05-07 21:07 | 18.40568 | -65.99793 | 5820 ft | 235 kts | 125° |
| 2026-05-07 21:07 | 18.39644 | -65.98320 | 6504 ft | 247 kts | 117° |
| 2026-05-07 21:07 | 18.38896 | -65.96640 | 7161 ft | 259 kts | 114° |
| 2026-05-07 21:07 | 18.38077 | -65.94905 | 7827 ft | 270 kts | 117° |
| 2026-05-07 21:08 | 18.37136 | -65.93148 | 8507 ft | 279 kts | 118° |
| 2026-05-07 21:08 | 18.36184 | -65.91334 | 9207 ft | 287 kts | 117° |
| 2026-05-07 21:08 | 18.35247 | -65.89473 | 9908 ft | 294 kts | 117° |
| 2026-05-07 21:08 | 18.34273 | -65.87548 | 10557 ft | 300 kts | 117° |
| 2026-05-07 21:09 | 18.33270 | -65.85599 | 11214 ft | 304 kts | 117° |
| 2026-05-07 21:09 | 18.32248 | -65.83634 | 11885 ft | 307 kts | 117° |
| 2026-05-07 21:09 | 18.31228 | -65.81644 | 12571 ft | 310 kts | 116° |
| 2026-05-07 21:09 | 18.30222 | -65.79671 | 13252 ft | 311 kts | 117° |
| 2026-05-07 21:10 | 18.29186 | -65.77661 | 13958 ft | 312 kts | 117° |
| 2026-05-07 21:10 | 18.28149 | -65.75647 | 14594 ft | 313 kts | 116° |
| 2026-05-07 21:10 | 18.27112 | -65.73626 | 15222 ft | 314 kts | 116° |
| 2026-05-07 21:10 | 18.26068 | -65.71591 | 15840 ft | 316 kts | 116° |
| 2026-05-07 21:11 | 18.25020 | -65.69554 | 16470 ft | 317 kts | 116° |
| 2026-05-07 21:11 | 18.23967 | -65.67508 | 17109 ft | 317 kts | 116° |
| 2026-05-07 21:11 | 18.21875 | -65.63443 | 18415 ft | 317 kts | 116° |
| 2026-05-07 21:12 | 18.20829 | -65.61410 | 18994 ft | 315 kts | 116° |
| 2026-05-07 21:12 | 18.19782 | -65.59379 | 19580 ft | 314 kts | 116° |
| 2026-05-07 21:12 | 18.18743 | -65.57364 | 20143 ft | 314 kts | 116° |
| 2026-05-07 21:12 | 18.17714 | -65.55362 | 20652 ft | 315 kts | 115° |
| 2026-05-07 21:13 | 18.16664 | -65.53328 | 21188 ft | 316 kts | 115° |
| 2026-05-07 21:13 | 18.15611 | -65.51288 | 21721 ft | 316 kts | 115° |
| 2026-05-07 21:13 | 18.14573 | -65.49275 | 22266 ft | 316 kts | 115° |
| 2026-05-07 21:13 | 18.13518 | -65.47232 | 22823 ft | 316 kts | 114° |
| 2026-05-07 21:14 | 18.12466 | -65.45195 | 23397 ft | 317 kts | 114° |
| 2026-05-07 21:14 | 18.11415 | -65.43160 | 23907 ft | 316 kts | 114° |
| 2026-05-07 21:14 | 18.10368 | -65.41130 | 24387 ft | 316 kts | 114° |
| 2026-05-07 21:14 | 18.09331 | -65.39126 | 24858 ft | 316 kts | 114° |
| 2026-05-07 21:15 | 18.08278 | -65.37087 | 25307 ft | 317 kts | 114° |
| 2026-05-07 21:15 | 18.07220 | -65.35040 | 25768 ft | 319 kts | 114° |
| 2026-05-07 21:15 | 18.06157 | -65.32985 | 26237 ft | 320 kts | 114° |
| 2026-05-07 21:15 | 18.05093 | -65.30928 | 26708 ft | 321 kts | 114° |
| 2026-05-07 21:16 | 18.04024 | -65.28864 | 27208 ft | 322 kts | 114° |
| 2026-05-07 21:16 | 18.02963 | -65.26815 | 27682 ft | 323 kts | 113° |
| 2026-05-07 21:16 | 18.01884 | -65.24729 | 28103 ft | 327 kts | 113° |
| 2026-05-07 21:16 | 18.00789 | -65.22616 | 28538 ft | 330 kts | 113° |
| 2026-05-07 21:17 | 17.99688 | -65.20492 | 28983 ft | 332 kts | 113° |
| 2026-05-07 21:17 | 17.98575 | -65.18345 | 29433 ft | 335 kts | 113° |
| 2026-05-07 21:17 | 17.97453 | -65.16182 | 29880 ft | 338 kts | 113° |
| 2026-05-07 21:17 | 17.96336 | -65.14028 | 30278 ft | 341 kts | 113° |
| 2026-05-07 21:18 | 17.95194 | -65.11828 | 30651 ft | 344 kts | 113° |
| 2026-05-07 21:18 | 17.94049 | -65.09626 | 31069 ft | 344 kts | 113° |
| 2026-05-07 21:18 | 17.92899 | -65.07407 | 31430 ft | 346 kts | 113° |
| 2026-05-07 21:18 | 17.91749 | -65.05178 | 31811 ft | 348 kts | 113° |
| 2026-05-07 21:19 | 17.90583 | -65.02934 | 32177 ft | 350 kts | 113° |
| 2026-05-07 21:19 | 17.89409 | -65.00686 | 32541 ft | 352 kts | 113° |
| 2026-05-07 21:19 | 17.88248 | -64.98455 | 32891 ft | 353 kts | 113° |
| 2026-05-07 21:19 | 17.87069 | -64.96186 | 33241 ft | 355 kts | 113° |
| 2026-05-07 21:20 | 17.85876 | -64.93895 | 33571 ft | 357 kts | 113° |
| 2026-05-07 21:20 | 17.84681 | -64.91601 | 33909 ft | 359 kts | 113° |
| 2026-05-07 21:20 | 17.83476 | -64.89289 | 34211 ft | 360 kts | 113° |
| 2026-05-07 21:20 | 17.82286 | -64.87005 | 34487 ft | 362 kts | 113° |
| 2026-05-07 21:21 | 17.81072 | -64.84678 | 34769 ft | 363 kts | 114° |
| 2026-05-07 21:21 | 17.79856 | -64.82345 | 35046 ft | 364 kts | 114° |
| 2026-05-07 21:21 | 17.78639 | -64.80011 | 35316 ft | 366 kts | 114° |
| 2026-05-07 21:21 | 17.77411 | -64.77660 | 35589 ft | 367 kts | 114° |
| 2026-05-07 21:22 | 17.76193 | -64.75328 | 35856 ft | 368 kts | 114° |
| 2026-05-07 21:22 | 17.74957 | -64.72958 | 36116 ft | 369 kts | 114° |
| 2026-05-07 21:22 | 17.73698 | -64.70600 | 36375 ft | 372 kts | 117° |
| 2026-05-07 21:22 | 17.72128 | -64.68449 | 36617 ft | 378 kts | 127° |
| 2026-05-07 21:23 | 17.70361 | -64.66381 | 36855 ft | 379 kts | 127° |
| 2026-05-07 21:23 | 17.68623 | -64.64302 | 37089 ft | 380 kts | 126° |
| 2026-05-07 21:23 | 17.66891 | -64.62198 | 37329 ft | 381 kts | 126° |
| 2026-05-07 21:23 | 17.65149 | -64.60103 | 37541 ft | 383 kts | 127° |
| 2026-05-07 21:24 | 17.63381 | -64.57999 | 37770 ft | 384 kts | 127° |
| 2026-05-07 21:24 | 17.61619 | -64.55891 | 37975 ft | 385 kts | 127° |
| 2026-05-07 21:24 | 17.59854 | -64.53769 | 38183 ft | 386 kts | 127° |
| 2026-05-07 21:24 | 17.58083 | -64.51646 | 38390 ft | 387 kts | 127° |
| 2026-05-07 21:25 | 17.56307 | -64.49523 | 38591 ft | 388 kts | 127° |
| 2026-05-07 21:25 | 17.54549 | -64.47422 | 38769 ft | 389 kts | 127° |
| 2026-05-07 21:25 | 17.52763 | -64.45283 | 38918 ft | 390 kts | 127° |
| 2026-05-07 21:25 | 17.50975 | -64.43143 | 39065 ft | 391 kts | 127° |
| 2026-05-07 21:26 | 17.49177 | -64.40994 | 39206 ft | 393 kts | 127° |
| 2026-05-07 21:26 | 17.47375 | -64.38840 | 39353 ft | 394 kts | 127° |
| 2026-05-07 21:26 | 17.45567 | -64.36679 | 39486 ft | 395 kts | 128° |
| 2026-05-07 21:26 | 17.43751 | -64.34510 | 39625 ft | 396 kts | 128° |
| 2026-05-07 21:27 | 17.41933 | -64.32340 | 39760 ft | 397 kts | 128° |
| 2026-05-07 21:27 | 17.40107 | -64.30159 | 39892 ft | 398 kts | 128° |
| 2026-05-07 21:27 | 17.38278 | -64.27978 | 40020 ft | 400 kts | 128° |
| 2026-05-07 21:27 | 17.36440 | -64.25785 | 40146 ft | 401 kts | 128° |
| 2026-05-07 21:28 | 17.34597 | -64.23587 | 40273 ft | 402 kts | 128° |
| 2026-05-07 21:28 | 17.32750 | -64.21385 | 40392 ft | 403 kts | 128° |
| 2026-05-07 21:28 | 17.30895 | -64.19175 | 40516 ft | 404 kts | 128° |
| 2026-05-07 21:28 | 17.29037 | -64.16961 | 40632 ft | 405 kts | 128° |
| 2026-05-07 21:29 | 17.27173 | -64.14742 | 40758 ft | 406 kts | 129° |
| 2026-05-07 21:29 | 17.25304 | -64.12516 | 40873 ft | 408 kts | 129° |
| 2026-05-07 21:29 | 17.23455 | -64.10315 | 40990 ft | 409 kts | 129° |
| 2026-05-07 21:29 | 17.21567 | -64.08069 | 41021 ft | 412 kts | 129° |
| 2026-05-07 21:30 | 17.17744 | -64.03523 | 41026 ft | 419 kts | 129° |
| 2026-05-07 21:30 | 17.13880 | -63.98930 | 41034 ft | 422 kts | 129° |
| 2026-05-07 21:31 | 17.09996 | -63.94309 | 41028 ft | 423 kts | 129° |
| 2026-05-07 21:31 | 17.06103 | -63.89684 | 41033 ft | 424 kts | 130° |
| 2026-05-07 21:32 | 17.02207 | -63.85056 | 41031 ft | 424 kts | 130° |
| 2026-05-07 21:32 | 16.98306 | -63.80428 | 41031 ft | 424 kts | 130° |
| 2026-05-07 21:33 | 16.95064 | -63.76583 | 41030 ft | 424 kts | 130° |
| 2026-05-07 21:33 | 16.91160 | -63.71955 | 41031 ft | 425 kts | 130° |
| 2026-05-07 21:34 | 16.87254 | -63.67329 | 41032 ft | 425 kts | 130° |
| 2026-05-07 21:34 | 16.83348 | -63.62706 | 41030 ft | 425 kts | 130° |
| 2026-05-07 21:35 | 16.79436 | -63.58079 | 41030 ft | 425 kts | 130° |
| 2026-05-07 21:35 | 16.75523 | -63.53453 | 41029 ft | 425 kts | 131° |
| 2026-05-07 21:36 | 16.71631 | -63.48856 | 41028 ft | 425 kts | 131° |
| 2026-05-07 21:36 | 16.67715 | -63.44234 | 41029 ft | 425 kts | 131° |
| 2026-05-07 21:37 | 16.63792 | -63.39606 | 41027 ft | 425 kts | 131° |
| 2026-05-07 21:37 | 16.59872 | -63.34986 | 41029 ft | 426 kts | 131° |
| 2026-05-07 21:38 | 16.55945 | -63.30359 | 41028 ft | 426 kts | 132° |
| 2026-05-07 21:38 | 16.52012 | -63.25729 | 41027 ft | 426 kts | 132° |
| 2026-05-07 21:39 | 16.48079 | -63.21102 | 41029 ft | 426 kts | 132° |
| 2026-05-07 21:39 | 16.44168 | -63.16504 | 41028 ft | 426 kts | 132° |
| 2026-05-07 21:40 | 16.40229 | -63.11875 | 41024 ft | 426 kts | 132° |
| 2026-05-07 21:40 | 16.36289 | -63.07250 | 41026 ft | 427 kts | 133° |
| 2026-05-07 21:41 | 16.32343 | -63.02619 | 41025 ft | 427 kts | 133° |
| 2026-05-07 21:41 | 16.28401 | -62.97997 | 41026 ft | 427 kts | 133° |
| 2026-05-07 21:42 | 16.24480 | -62.93404 | 41025 ft | 427 kts | 133° |
| 2026-05-07 21:42 | 16.20527 | -62.88777 | 41028 ft | 427 kts | 133° |
| 2026-05-07 21:43 | 16.16576 | -62.84155 | 41022 ft | 427 kts | 133° |
| 2026-05-07 21:43 | 16.12620 | -62.79531 | 41018 ft | 428 kts | 133° |
| 2026-05-07 21:44 | 16.08661 | -62.74905 | 41019 ft | 428 kts | 133° |
| 2026-05-07 21:44 | 16.04704 | -62.70285 | 41017 ft | 428 kts | 134° |
| 2026-05-07 21:45 | 16.00743 | -62.65663 | 41018 ft | 428 kts | 134° |
| 2026-05-07 21:45 | 15.96782 | -62.61044 | 41019 ft | 428 kts | 134° |
| 2026-05-07 21:46 | 15.92828 | -62.56438 | 41017 ft | 428 kts | 134° |
| 2026-05-07 21:46 | 15.88884 | -62.51845 | 41016 ft | 428 kts | 134° |
| 2026-05-07 21:47 | 15.84885 | -62.47190 | 41015 ft | 428 kts | 134° |
| 2026-05-07 21:47 | 15.80941 | -62.42604 | 41014 ft | 428 kts | 134° |
| 2026-05-07 21:48 | 15.76971 | -62.37989 | 41015 ft | 428 kts | 134° |
| 2026-05-07 21:48 | 15.74979 | -62.35676 | 40895 ft | 431 kts | 134° |
| 2026-05-07 21:48 | 15.72975 | -62.33357 | 40395 ft | 430 kts | 135° |
| 2026-05-07 21:49 | 15.70989 | -62.31056 | 39862 ft | 426 kts | 135° |
| 2026-05-07 21:49 | 15.69017 | -62.28759 | 39342 ft | 424 kts | 135° |
| 2026-05-07 21:49 | 15.67059 | -62.26485 | 38828 ft | 422 kts | 135° |
| 2026-05-07 21:49 | 15.65104 | -62.24220 | 38273 ft | 421 kts | 135° |
| 2026-05-07 21:50 | 15.63154 | -62.21960 | 37667 ft | 420 kts | 135° |
| 2026-05-07 21:50 | 15.61203 | -62.19696 | 37050 ft | 420 kts | 135° |
| 2026-05-07 21:50 | 15.59278 | -62.17463 | 36459 ft | 420 kts | 134° |
| 2026-05-07 21:50 | 15.57330 | -62.15207 | 35875 ft | 419 kts | 134° |
| 2026-05-07 21:51 | 15.55386 | -62.12956 | 35306 ft | 419 kts | 134° |
| 2026-05-07 21:51 | 15.53444 | -62.10706 | 34747 ft | 417 kts | 134° |
| 2026-05-07 21:51 | 15.51510 | -62.08467 | 34203 ft | 416 kts | 134° |
| 2026-05-07 21:51 | 15.49583 | -62.06238 | 33608 ft | 415 kts | 133° |
| 2026-05-07 21:52 | 15.47661 | -62.04014 | 32993 ft | 413 kts | 133° |
| 2026-05-07 21:52 | 15.45746 | -62.01799 | 32400 ft | 412 kts | 134° |
| 2026-05-07 21:52 | 15.43837 | -61.99592 | 31814 ft | 410 kts | 134° |
| 2026-05-07 21:52 | 15.41936 | -61.97395 | 31240 ft | 409 kts | 134° |
| 2026-05-07 21:53 | 15.40039 | -61.95203 | 30680 ft | 407 kts | 134° |
| 2026-05-07 21:53 | 15.38152 | -61.93023 | 30132 ft | 406 kts | 134° |
| 2026-05-07 21:53 | 15.36272 | -61.90853 | 29496 ft | 404 kts | 134° |
| 2026-05-07 21:53 | 15.34393 | -61.88684 | 28860 ft | 403 kts | 134° |
| 2026-05-07 21:54 | 15.32526 | -61.86529 | 28246 ft | 402 kts | 133° |
| 2026-05-07 21:54 | 15.30663 | -61.84380 | 27637 ft | 400 kts | 133° |
| 2026-05-07 21:54 | 15.28801 | -61.82233 | 27043 ft | 399 kts | 133° |
| 2026-05-07 21:54 | 15.26946 | -61.80094 | 26459 ft | 398 kts | 133° |
| 2026-05-07 21:55 | 15.25099 | -61.77964 | 25891 ft | 397 kts | 133° |
| 2026-05-07 21:55 | 15.23278 | -61.75867 | 25336 ft | 396 kts | 133° |
| 2026-05-07 21:55 | 15.21442 | -61.73751 | 24797 ft | 395 kts | 133° |
| 2026-05-07 21:55 | 15.19607 | -61.71637 | 24262 ft | 394 kts | 132° |
| 2026-05-07 21:56 | 15.17779 | -61.69534 | 23735 ft | 393 kts | 132° |
| 2026-05-07 21:56 | 15.15954 | -61.67433 | 23137 ft | 392 kts | 132° |
| 2026-05-07 21:56 | 15.14116 | -61.65357 | 22523 ft | 390 kts | 135° |
| 2026-05-07 21:56 | 15.11975 | -61.63649 | 21911 ft | 388 kts | 148° |
| 2026-05-07 21:57 | 15.09669 | -61.62226 | 21325 ft | 383 kts | 149° |
| 2026-05-07 21:57 | 15.07418 | -61.60805 | 20745 ft | 375 kts | 148° |
| 2026-05-07 21:57 | 15.05216 | -61.59390 | 20174 ft | 369 kts | 148° |
| 2026-05-07 21:57 | 15.03037 | -61.58023 | 19610 ft | 364 kts | 149° |
| 2026-05-07 21:58 | 15.00879 | -61.56678 | 19058 ft | 360 kts | 148° |
| 2026-05-07 21:58 | 14.98761 | -61.55341 | 18518 ft | 351 kts | 148° |
| 2026-05-07 21:58 | 14.96705 | -61.54040 | 17932 ft | 342 kts | 147° |
| 2026-05-07 21:58 | 14.94695 | -61.52777 | 17306 ft | 335 kts | 148° |
| 2026-05-07 21:59 | 14.92719 | -61.51537 | 16713 ft | 329 kts | 148° |
| 2026-05-07 21:59 | 14.90783 | -61.50317 | 16122 ft | 324 kts | 147° |
| 2026-05-07 21:59 | 14.88872 | -61.49112 | 15543 ft | 319 kts | 147° |
| 2026-05-07 21:59 | 14.86983 | -61.47926 | 14976 ft | 316 kts | 147° |
| 2026-05-07 22:00 | 14.85110 | -61.46751 | 14419 ft | 313 kts | 147° |
| 2026-05-07 22:00 | 14.83259 | -61.45585 | 13879 ft | 310 kts | 147° |
| 2026-05-07 22:00 | 14.81421 | -61.44430 | 13269 ft | 308 kts | 147° |
| 2026-05-07 22:00 | 14.79597 | -61.43285 | 12670 ft | 305 kts | 147° |
| 2026-05-07 22:01 | 14.78028 | -61.42300 | 12158 ft | 303 kts | 147° |
| 2026-05-07 22:01 | 14.76233 | -61.41171 | 11582 ft | 301 kts | 147° |
| 2026-05-07 22:01 | 14.74448 | -61.40049 | 11017 ft | 299 kts | 147° |
| 2026-05-07 22:01 | 14.72671 | -61.38934 | 10458 ft | 297 kts | 147° |
| 2026-05-07 22:02 | 14.70911 | -61.37824 | 9906 ft | 296 kts | 147° |
| 2026-05-07 22:02 | 14.69159 | -61.36723 | 9303 ft | 294 kts | 147° |
| 2026-05-07 22:02 | 14.67439 | -61.35645 | 8719 ft | 292 kts | 147° |
| 2026-05-07 22:02 | 14.65701 | -61.34556 | 8134 ft | 291 kts | 147° |
| 2026-05-07 22:03 | 14.63975 | -61.33472 | 7561 ft | 290 kts | 147° |
| 2026-05-07 22:03 | 14.62255 | -61.32398 | 7038 ft | 288 kts | 148° |
| 2026-05-07 22:03 | 14.60564 | -61.31340 | 6543 ft | 282 kts | 147° |
| 2026-05-07 22:03 | 14.58900 | -61.30296 | 6048 ft | 278 kts | 148° |
| 2026-05-07 22:04 | 14.57352 | -61.29129 | 5527 ft | 273 kts | 133° |
| 2026-05-07 22:04 | 14.56217 | -61.27590 | 5024 ft | 268 kts | 118° |
| 2026-05-07 22:04 | 14.55501 | -61.25837 | 4534 ft | 262 kts | 103° |
| 2026-05-07 22:04 | 14.55260 | -61.24023 | 4190 ft | 250 kts | 90° |
| 2026-05-07 22:05 | 14.55365 | -61.22259 | 3821 ft | 242 kts | 81° |
| 2026-05-07 22:05 | 14.55642 | -61.20578 | 3501 ft | 234 kts | 78° |
| 2026-05-07 22:05 | 14.55934 | -61.18949 | 3208 ft | 227 kts | 79° |
| 2026-05-07 22:05 | 14.56182 | -61.17382 | 2926 ft | 222 kts | 79° |
| 2026-05-07 22:06 | 14.56461 | -61.15826 | 2645 ft | 219 kts | 78° |
| 2026-05-07 22:06 | 14.56718 | -61.14312 | 2362 ft | 208 kts | 81° |
| 2026-05-07 22:06 | 14.56948 | -61.12900 | 2100 ft | 193 kts | 78° |
| 2026-05-07 22:06 | 14.57175 | -61.11644 | 1874 ft | 160 kts | 78° |
| 2026-05-07 22:07 | 14.57349 | -61.10566 | 1677 ft | 147 kts | 80° |
| 2026-05-07 22:07 | 14.57532 | -61.09552 | 1475 ft | 141 kts | 78° |
| 2026-05-07 22:07 | 14.57651 | -61.08701 | 1430 ft | 103 kts | 79° |
| 2026-05-07 22:07 | 14.57762 | -61.08002 | 1270 ft | 96 kts | 78° |
| 2026-05-07 22:08 | 14.57878 | -61.07309 | 1050 ft | 99 kts | 78° |
| 2026-05-07 22:08 | 14.58009 | -61.06608 | 893 ft | 99 kts | 77° |
| 2026-05-07 22:08 | 14.58138 | -61.05916 | 840 ft | 97 kts | 78° |
| 2026-05-07 22:08 | 14.58255 | -61.05227 | 724 ft | 97 kts | 80° |
| 2026-05-07 22:09 | 14.58367 | -61.04547 | 539 ft | 101 kts | 77° |
| 2026-05-07 22:09 | 14.58505 | -61.03804 | 444 ft | 106 kts | 77° |
| 2026-05-07 22:09 | 14.58631 | -61.03068 | 326 ft | 101 kts | 78° |
| 2026-05-07 22:09 | 14.58748 | -61.02369 | 192 ft | 97 kts | 76° |
| 2026-05-07 22:10 | 14.58875 | -61.01682 | 36 ft | 99 kts | 78° |
| 2026-05-07 22:10 | 14.58984 | -61.01071 | 16 ft | 72 kts | 79° |
| 2026-05-07 22:10 | 14.59051 | -61.00686 | 14 ft | 19 kts | 54° |
| 2026-05-07 22:10 | 14.59120 | -61.00689 | 14 ft | 9 kts | 352° |
| 2026-05-07 22:11 | 14.59188 | -61.00700 | 15 ft | 11 kts | 351° |
| 2026-05-07 22:11 | 14.59254 | -61.00711 | 15 ft | 8 kts | 348° |
| 2026-05-07 22:11 | 14.59304 | -61.00712 | 15 ft | 6 kts | 46° |
| 2026-05-07 22:11 | 14.59315 | -61.00668 | 15 ft | 4 kts | 64° |
| 2026-05-07 22:12 | 14.59332 | -61.00665 | 15 ft | 5 kts | 350° |
| 2026-05-07 22:12 | 14.59333 | -61.00666 | 15 ft | 0 kts | 350° |
| 2026-05-07 22:17 | 14.59331 | -61.00673 | 15 ft | 6 kts | 230° |
| 2026-05-07 22:17 | 14.59258 | -61.00711 | 15 ft | 15 kts | 174° |
| 2026-05-07 22:18 | 14.59145 | -61.00692 | 14 ft | 18 kts | 170° |
| 2026-05-07 22:18 | 14.59099 | -61.00371 | 13 ft | 71 kts | 79° |
| 2026-05-07 22:18 | 14.59228 | -60.99622 | 88 ft | 131 kts | 79° |
| 2026-05-07 22:19 | 14.59214 | -60.98649 | 753 ft | 143 kts | 102° |
| 2026-05-07 22:19 | 14.58584 | -60.97813 | 1433 ft | 161 kts | 147° |
| 2026-05-07 22:19 | 14.57342 | -60.97716 | 1987 ft | 208 kts | 194° |
| 2026-05-07 22:19 | 14.55933 | -60.98291 | 2870 ft | 221 kts | 197° |
| 2026-05-07 22:20 | 14.54497 | -60.98687 | 4082 ft | 208 kts | 190° |
| 2026-05-07 22:20 | 14.53550 | -60.98890 | 4694 ft | 212 kts | 189° |
| 2026-05-07 22:20 | 14.52051 | -60.99186 | 5443 ft | 225 kts | 189° |
| 2026-05-07 22:20 | 14.50500 | -60.99470 | 6360 ft | 227 kts | 189° |
| 2026-05-07 22:21 | 14.49920 | -60.99563 | 6691 ft | 228 kts | 189° |
| 2026-05-07 22:21 | 14.48499 | -60.99795 | 7425 ft | 232 kts | 189° |
| 2026-05-07 22:21 | 14.46884 | -61.00063 | 8248 ft | 237 kts | 189° |
| 2026-05-07 22:21 | 14.45241 | -61.00334 | 9094 ft | 243 kts | 188° |
| 2026-05-07 22:22 | 14.43473 | -61.00614 | 9413 ft | 271 kts | 188° |
| 2026-05-07 22:22 | 14.41525 | -61.00924 | 9712 ft | 295 kts | 188° |
| 2026-05-07 22:22 | 14.39424 | -61.01256 | 9979 ft | 316 kts | 188° |
| 2026-05-07 22:22 | 14.37195 | -61.01607 | 9997 ft | 324 kts | 188° |
| 2026-05-07 22:23 | 14.34976 | -61.01961 | 9993 ft | 321 kts | 188° |
| 2026-05-07 22:23 | 14.32768 | -61.02315 | 9985 ft | 322 kts | 188° |
| 2026-05-07 22:23 | 14.30552 | -61.02670 | 9985 ft | 323 kts | 188° |
| 2026-05-07 22:23 | 14.28327 | -61.03029 | 9984 ft | 324 kts | 188° |
| 2026-05-07 22:24 | 14.26128 | -61.03385 | 9989 ft | 324 kts | 188° |
| 2026-05-07 22:24 | 14.23896 | -61.03745 | 9994 ft | 325 kts | 188° |
| 2026-05-07 22:24 | 14.21662 | -61.04106 | 9995 ft | 324 kts | 188° |
| 2026-05-07 22:24 | 14.19435 | -61.04471 | 9992 ft | 324 kts | 188° |
| 2026-05-07 22:25 | 14.17208 | -61.04837 | 9994 ft | 324 kts | 188° |
| 2026-05-07 22:25 | 14.14976 | -61.05205 | 9770 ft | 324 kts | 188° |
| 2026-05-07 22:25 | 14.12787 | -61.05565 | 9356 ft | 312 kts | 188° |
| 2026-05-07 22:25 | 14.10676 | -61.05914 | 8944 ft | 303 kts | 188° |
| 2026-05-07 22:26 | 14.08618 | -61.06253 | 8543 ft | 295 kts | 188° |
| 2026-05-07 22:26 | 14.06610 | -61.06582 | 8157 ft | 290 kts | 188° |
| 2026-05-07 22:26 | 14.04633 | -61.06907 | 7766 ft | 285 kts | 188° |
| 2026-05-07 22:26 | 14.02683 | -61.07227 | 7384 ft | 282 kts | 188° |
| 2026-05-07 22:27 | 14.00755 | -61.07540 | 7011 ft | 279 kts | 188° |
| 2026-05-07 22:27 | 13.98864 | -61.07847 | 6639 ft | 277 kts | 188° |
| 2026-05-07 22:27 | 13.96966 | -61.08156 | 6256 ft | 275 kts | 188° |
| 2026-05-07 22:27 | 13.95073 | -61.08410 | 5863 ft | 273 kts | 184° |
| 2026-05-07 22:28 | 13.93178 | -61.08541 | 5472 ft | 272 kts | 182° |
| 2026-05-07 22:28 | 13.91287 | -61.08646 | 5086 ft | 271 kts | 180° |
| 2026-05-07 22:28 | 13.89411 | -61.08573 | 4701 ft | 267 kts | 174° |
| 2026-05-07 22:28 | 13.87584 | -61.08420 | 4350 ft | 259 kts | 173° |
| 2026-05-07 22:29 | 13.85817 | -61.08282 | 4074 ft | 251 kts | 173° |
| 2026-05-07 22:29 | 13.84094 | -61.08152 | 3804 ft | 245 kts | 173° |
| 2026-05-07 22:29 | 13.82404 | -61.08035 | 3538 ft | 241 kts | 173° |
| 2026-05-07 22:29 | 13.80767 | -61.07916 | 3271 ft | 236 kts | 169° |
| 2026-05-07 22:30 | 13.79194 | -61.07543 | 3001 ft | 229 kts | 160° |
| 2026-05-07 22:30 | 13.77686 | -61.07045 | 2734 ft | 226 kts | 155° |
| 2026-05-07 22:30 | 13.76317 | -61.06345 | 2688 ft | 209 kts | 143° |
| 2026-05-07 22:30 | 13.75273 | -61.05429 | 2645 ft | 190 kts | 133° |
| 2026-05-07 22:31 | 13.74412 | -61.04552 | 2465 ft | 161 kts | 128° |
| 2026-05-07 22:31 | 13.73773 | -61.03679 | 2132 ft | 147 kts | 119° |
| 2026-05-07 22:31 | 13.73355 | -61.02767 | 1819 ft | 137 kts | 103° |
| 2026-05-07 22:31 | 13.73265 | -61.01808 | 1512 ft | 134 kts | 88° |
| 2026-05-07 22:32 | 13.73332 | -61.00855 | 1233 ft | 129 kts | 86° |
| 2026-05-07 22:32 | 13.73342 | -61.00009 | 1022 ft | 111 kts | 90° |
| 2026-05-07 22:32 | 13.73330 | -60.99226 | 835 ft | 107 kts | 88° |
| 2026-05-07 22:32 | 13.73335 | -60.98467 | 623 ft | 106 kts | 86° |
| 2026-05-07 22:33 | 13.73340 | -60.97718 | 445 ft | 106 kts | 89° |
| 2026-05-07 22:33 | 13.73344 | -60.96965 | 191 ft | 103 kts | 88° |
| 2026-05-07 22:33 | 13.73343 | -60.96260 | 26 ft | 91 kts | 88° |
| 2026-05-07 22:33 | 13.73342 | -60.95708 | 25 ft | 65 kts | 91° |
| 2026-05-07 22:34 | 13.73345 | -60.95405 | 23 ft | 25 kts | 88° |
| 2026-05-07 22:34 | 13.73343 | -60.95246 | 22 ft | 20 kts | 91° |
| 2026-05-07 22:34 | 13.73388 | -60.95156 | 21 ft | 14 kts | 0° |
| 2026-05-07 22:34 | 13.73484 | -60.95156 | 22 ft | 13 kts | 1° |
| 2026-05-07 22:35 | 13.73563 | -60.95155 | 23 ft | 10 kts | 12° |
| 2026-05-07 22:35 | 13.73617 | -60.95134 | 23 ft | 6 kts | 20° |
| 2026-05-07 22:35 | 13.73631 | -60.95129 | 23 ft | 0 kts | 20° |